Time;durP1;ratioP1;P1;durP2;ratioP2;P2;SDS_P1;SDS_P2;PMS_P1;PMS_P2;Temp;Humidity;BMP_temperature;BMP_pressure;BME280_temperature;BME280_humidity;BME280_pressure;Samples;Min_cycle;Max_cycle;Signal;HPM_P1;HPM_P2
2020/12/17 00:01:22;;;;;;;6.75;3.72;;;;;;;10.24;50.78;101077.69;5070656;28;20621;-67
2020/12/17 00:03:53;;;;;;;5.78;3.50;;;;;;;10.22;51.00;101066.88;5090947;28;20064;-66
2020/12/17 00:06:36;;;;;;;6.35;4.22;;;;;;;10.24;50.98;101073.09;5072346;28;20059;-67
2020/12/17 00:09:04;;;;;;;6.47;3.58;;;;;;;10.24;51.17;101062.16;5083917;28;20040;-67
2020/12/17 00:11:37;;;;;;;6.82;4.00;;;;;;;10.24;50.99;101069.50;5067755;28;20054;-67
2020/12/17 00:14:09;;;;;;;5.78;4.10;;;;;;;10.24;50.92;101066.75;5072811;28;20384;-67
2020/12/17 00:16:48;;;;;;;6.32;3.67;;;;;;;10.23;51.20;101065.88;5068347;28;20047;-67
2020/12/17 00:19:20;;;;;;;6.40;3.75;;;;;;;10.25;51.03;101066.63;5089725;28;20050;-67
2020/12/17 00:21:54;;;;;;;6.63;3.70;;;;;;;10.27;51.31;101074.72;5086347;28;20359;-67
2020/12/17 00:24:22;;;;;;;6.30;3.72;;;;;;;10.27;51.15;101074.72;5073989;28;20059;-67
2020/12/17 00:26:49;;;;;;;6.40;3.47;;;;;;;10.27;51.22;101067.38;5096232;28;20487;-67
2020/12/17 00:29:17;;;;;;;5.88;3.33;;;;;;;10.29;51.33;101072.75;5090106;28;20487;-67
2020/12/17 00:31:44;;;;;;;5.28;3.33;;;;;;;10.29;50.89;101061.81;5089329;28;20051;-67
2020/12/17 00:34:11;;;;;;;5.88;3.47;;;;;;;10.29;51.21;101057.16;5055394;28;20043;-67
2020/12/17 00:36:53;;;;;;;6.10;3.70;;;;;;;10.31;51.24;101054.31;5083951;28;20085;-67
2020/12/17 00:39:22;;;;;;;6.00;3.47;;;;;;;10.31;50.87;101046.13;5092395;28;20410;-67
2020/12/17 00:41:49;;;;;;;6.28;3.58;;;;;;;10.31;50.71;101052.47;5089726;28;20115;-67
2020/12/17 00:44:17;;;;;;;6.05;4.00;;;;;;;10.33;51.11;101061.41;5089952;28;20463;-66
2020/12/17 00:46:44;;;;;;;5.97;3.65;;;;;;;10.33;50.91;101057.81;5076416;28;20040;-67
2020/12/17 00:49:11;;;;;;;6.43;3.67;;;;;;;10.33;50.74;101057.81;5092551;28;20051;-67
2020/12/17 00:51:42;;;;;;;5.35;3.55;;;;;;;10.34;50.71;101059.53;5073870;28;20048;-67
2020/12/17 00:54:11;;;;;;;6.22;3.72;;;;;;;10.34;51.16;101060.41;5092818;28;20048;-67
2020/12/17 00:56:45;;;;;;;6.40;4.07;;;;;;;10.36;50.77;101052.97;5099474;28;20399;-67
2020/12/17 00:59:13;;;;;;;6.15;3.83;;;;;;;10.34;50.96;101040.41;5092957;28;20051;-67
2020/12/17 01:01:41;;;;;;;6.63;3.92;;;;;;;10.35;51.01;101056.69;5087952;28;20127;-67
2020/12/17 01:04:08;;;;;;;6.20;3.83;;;;;;;10.35;50.66;101050.34;5091654;28;20040;-67
2020/12/17 01:06:36;;;;;;;7.32;4.22;;;;;;;10.36;50.84;101044.75;5092135;28;20048;-67
2020/12/17 01:09:07;;;;;;;5.82;3.72;;;;;;;10.38;50.86;101055.53;5108189;28;20126;-66
2020/12/17 01:11:38;;;;;;;6.30;3.90;;;;;;;10.37;50.79;101049.22;5084077;28;20063;-67
2020/12/17 01:14:09;;;;;;;6.20;3.50;;;;;;;10.38;51.02;101058.28;5067188;28;20062;-67
2020/12/17 01:16:36;;;;;;;6.20;3.80;;;;;;;10.40;50.83;101067.25;5093450;28;20047;-67
2020/12/17 01:19:04;;;;;;;5.82;3.90;;;;;;;10.40;50.94;101067.25;5092204;28;20443;-67
2020/12/17 01:21:32;;;;;;;5.30;3.15;;;;;;;10.41;51.18;101069.84;5092578;28;20074;-67
2020/12/17 01:24:01;;;;;;;5.55;3.72;;;;;;;10.42;50.90;101063.38;5094514;28;20170;-67
2020/12/17 01:26:29;;;;;;;4.57;3.25;;;;;;;10.44;50.65;101069.63;5092291;28;20032;-67
2020/12/17 01:29:01;;;;;;;4.95;3.15;;;;;;;10.46;51.03;101069.47;5090603;28;20449;-67
2020/12/17 01:31:29;;;;;;;5.97;3.28;;;;;;;10.45;50.95;101071.31;5092016;28;20044;-67
2020/12/17 01:33:57;;;;;;;5.00;2.97;;;;;;;10.48;50.62;101067.47;5089646;28;20048;-67
2020/12/17 01:36:24;;;;;;;5.15;3.13;;;;;;;10.49;50.84;101072.81;5092465;28;20067;-67
2020/12/17 01:38:53;;;;;;;5.15;2.88;;;;;;;10.49;51.08;101070.09;5091797;28;20128;-67
2020/12/17 01:41:27;;;;;;;4.47;2.88;;;;;;;10.52;50.94;101071.72;5082625;28;20049;-67
2020/12/17 01:44:15;;;;;;;5.47;3.20;;;;;;;10.53;50.98;101074.28;5089201;28;20084;-67
2020/12/17 01:46:46;;;;;;;6.00;3.20;;;;;;;10.51;50.79;101067.22;5091351;28;20135;-67
2020/12/17 01:49:23;;;;;;;5.35;3.08;;;;;;;10.56;50.67;101073.19;5072281;28;20398;-67
2020/12/17 01:51:58;;;;;;;5.70;3.28;;;;;;;10.57;51.20;101079.53;5069026;28;20059;-67
2020/12/17 01:54:25;;;;;;;5.55;3.38;;;;;;;10.59;50.75;101083.88;5105857;27;20075;-67
2020/12/17 01:57:00;;;;;;;5.93;3.33;;;;;;;10.62;50.99;101094.53;5100752;28;20098;-67
2020/12/17 01:59:40;;;;;;;5.78;3.28;;;;;;;10.62;50.83;101089.06;5100690;27;20044;-67
2020/12/17 02:02:10;;;;;;;5.82;3.28;;;;;;;10.62;50.89;101100.00;5084465;28;20403;-67
2020/12/17 02:04:45;;;;;;;5.22;3.00;;;;;;;10.63;50.90;101089.94;5051265;28;20493;-67
2020/12/17 02:07:21;;;;;;;5.30;3.33;;;;;;;10.63;50.67;101081.75;5069644;28;20402;-67
2020/12/17 02:10:08;;;;;;;5.88;3.42;;;;;;;10.61;50.77;101079.16;5089912;28;20083;-67
2020/12/17 02:12:47;;;;;;;4.70;3.10;;;;;;;10.64;50.83;101078.00;5068265;28;20032;-67
2020/12/17 02:15:35;;;;;;;5.05;3.17;;;;;;;10.64;50.94;101073.41;5068727;28;20056;-67
2020/12/17 02:18:18;;;;;;;4.88;2.75;;;;;;;10.64;50.64;101081.63;5071641;28;20501;-67
2020/12/17 02:21:05;;;;;;;5.25;3.03;;;;;;;10.64;50.56;101083.47;5085753;28;20047;-67
2020/12/17 02:23:56;;;;;;;4.50;2.80;;;;;;;10.64;50.72;101070.69;5094093;28;20044;-68
2020/12/17 02:26:43;;;;;;;5.00;2.70;;;;;;;10.66;50.54;101074.16;5092464;28;20088;-66
2020/12/17 02:29:30;;;;;;;4.82;2.50;;;;;;;10.65;50.40;101066.06;5088829;28;20510;-66
2020/12/17 02:32:18;;;;;;;4.05;2.40;;;;;;;10.64;50.70;101059.72;5089389;28;20143;-66
2020/12/17 02:35:07;;;;;;;4.57;2.40;;;;;;;10.66;50.57;101054.13;5091753;28;20083;-66
2020/12/17 02:37:54;;;;;;;4.85;2.72;;;;;;;10.63;50.56;101066.19;5085528;28;20079;-67
2020/12/17 02:40:41;;;;;;;4.55;2.35;;;;;;;10.65;50.71;101052.41;5090963;28;20052;-66
2020/12/17 02:43:29;;;;;;;4.50;2.45;;;;;;;10.65;50.39;101061.47;5087625;28;20072;-66
2020/12/17 02:46:16;;;;;;;4.45;2.63;;;;;;;10.64;50.24;101057.00;5091697;28;20048;-67
2020/12/17 02:49:03;;;;;;;4.80;3.17;;;;;;;10.64;50.53;101059.72;5084768;28;20127;-67
2020/12/17 02:51:50;;;;;;;4.60;2.70;;;;;;;10.62;50.71;101050.78;5084171;28;20281;-66
2020/12/17 02:54:37;;;;;;;4.90;2.80;;;;;;;10.63;50.43;101057.13;5089115;28;20519;-66
2020/12/17 02:57:16;;;;;;;4.75;2.78;;;;;;;10.63;50.61;101058.00;5092106;28;20063;-66
2020/12/17 02:59:53;;;;;;;5.13;3.10;;;;;;;10.64;50.42;101054.25;5088093;28;20383;-66
2020/12/17 03:02:35;;;;;;;5.47;2.90;;;;;;;10.61;50.52;101057.28;5086494;28;20114;-66
2020/12/17 03:05:05;;;;;;;5.15;2.88;;;;;;;10.64;50.49;101062.47;5089854;28;20320;-66
2020/12/17 03:07:32;;;;;;;6.47;2.95;;;;;;;10.66;50.60;101059.59;5089842;28;20047;-66
2020/12/17 03:10:05;;;;;;;4.93;2.83;;;;;;;10.67;50.61;101064.97;5094585;28;20047;-66
2020/12/17 03:12:43;;;;;;;5.13;2.88;;;;;;;10.67;50.48;101061.34;5070462;28;20394;-67
2020/12/17 03:15:17;;;;;;;4.30;2.45;;;;;;;10.67;50.43;101062.22;5090992;28;20426;-66
2020/12/17 03:17:45;;;;;;;4.43;2.65;;;;;;;10.68;50.30;101063.09;5089323;28;20060;-66
2020/12/17 03:20:13;;;;;;;5.25;2.80;;;;;;;10.69;50.57;101056.63;5089890;28;20040;-66
2020/12/17 03:22:43;;;;;;;4.53;2.67;;;;;;;10.69;50.62;101056.63;5089648;28;20135;-66
2020/12/17 03:25:12;;;;;;;4.85;2.58;;;;;;;10.69;50.53;101054.75;5090311;28;20382;-67
2020/12/17 03:27:41;;;;;;;4.55;3.00;;;;;;;10.69;50.37;101054.75;5090850;28;20063;-67
2020/12/17 03:30:08;;;;;;;6.05;3.10;;;;;;;10.70;50.59;101052.91;5089366;28;20085;-67
2020/12/17 03:32:37;;;;;;;4.88;3.10;;;;;;;10.72;50.52;101048.13;5087541;28;20070;-67
2020/12/17 03:35:04;;;;;;;4.88;2.90;;;;;;;10.71;50.11;101060.06;5089947;28;20127;-67
2020/12/17 03:37:32;;;;;;;5.00;2.72;;;;;;;10.72;50.08;101062.69;5091584;28;20106;-67
2020/12/17 03:39:59;;;;;;;4.85;3.20;;;;;;;10.72;50.37;101059.97;5074475;28;20060;-67
2020/12/17 03:42:27;;;;;;;4.97;3.20;;;;;;;10.72;50.10;101064.56;5087561;28;20040;-67
2020/12/17 03:44:54;;;;;;;4.38;2.63;;;;;;;10.72;50.20;101059.97;5089279;28;20059;-67
2020/12/17 03:47:26;;;;;;;5.75;3.20;;;;;;;10.72;50.30;101053.63;5073725;28;20119;-67
2020/12/17 03:49:54;;;;;;;4.68;2.88;;;;;;;10.75;50.33;101050.63;5087685;28;20371;-67
2020/12/17 03:52:21;;;;;;;5.20;3.17;;;;;;;10.73;50.02;101050.75;5088359;28;20044;-67
2020/12/17 03:54:48;;;;;;;5.40;2.83;;;;;;;10.72;50.10;101046.28;5068340;28;20608;-67
2020/12/17 03:57:20;;;;;;;5.40;2.90;;;;;;;10.72;50.22;101037.19;5090585;28;20036;-67
2020/12/17 03:59:50;;;;;;;4.45;2.90;;;;;;;10.72;50.05;101053.63;5089674;28;20109;-67
2020/12/17 04:02:17;;;;;;;4.65;3.00;;;;;;;10.72;50.30;101046.28;5087337;28;20058;-67
2020/12/17 04:04:54;;;;;;;4.88;2.95;;;;;;;10.73;49.99;101037.06;5085803;28;20044;-67
2020/12/17 04:07:21;;;;;;;4.88;2.70;;;;;;;10.73;50.15;101041.69;5089380;28;20384;-67
2020/12/17 04:09:48;;;;;;;4.60;2.83;;;;;;;10.72;50.02;101037.19;5074413;28;20063;-67
2020/12/17 04:12:16;;;;;;;4.80;2.83;;;;;;;10.71;49.99;101044.53;5089132;28;20118;-67
2020/12/17 04:15:03;;;;;;;4.68;2.72;;;;;;;10.71;49.76;101041.81;5090962;28;20044;-67
2020/12/17 04:17:40;;;;;;;4.88;3.13;;;;;;;10.72;50.16;101032.59;5095722;28;20038;-67
2020/12/17 04:20:10;;;;;;;4.80;2.80;;;;;;;10.73;50.11;101037.06;5075583;28;20043;-67
2020/12/17 04:22:49;;;;;;;4.82;2.78;;;;;;;10.71;49.75;101028.13;5075111;28;20028;-67
2020/12/17 04:25:36;;;;;;;4.90;2.92;;;;;;;10.71;50.30;101038.19;5086339;28;20135;-67
2020/12/17 04:28:18;;;;;;;4.75;2.80;;;;;;;10.71;49.90;101039.06;5075932;28;20109;-67
2020/12/17 04:31:05;;;;;;;4.93;3.00;;;;;;;10.71;50.03;101046.41;5088115;28;20471;-67
2020/12/17 04:33:52;;;;;;;4.82;3.05;;;;;;;10.71;49.81;101046.41;5087976;28;20135;-67
2020/12/17 04:36:41;;;;;;;5.05;3.03;;;;;;;10.72;50.14;101056.34;5089662;28;20075;-67
2020/12/17 04:39:23;;;;;;;6.28;3.33;;;;;;;10.71;49.89;101060.94;5073806;28;20048;-66
2020/12/17 04:41:59;;;;;;;4.85;2.90;;;;;;;10.72;49.85;101050.88;5074455;28;20398;-67
2020/12/17 04:44:29;;;;;;;6.25;3.30;;;;;;;10.72;49.88;101049.00;5093054;28;20390;-68
2020/12/17 04:47:19;;;;;;;5.00;2.92;;;;;;;10.72;49.82;101045.41;5090121;28;20556;-67
2020/12/17 04:50:08;;;;;;;4.25;2.70;;;;;;;10.71;49.98;101055.47;5087771;28;20052;-67
2020/12/17 04:53:00;;;;;;;5.05;2.95;;;;;;;10.74;49.90;101068.03;5079042;28;20099;-67
2020/12/17 04:55:49;;;;;;;5.57;3.23;;;;;;;10.70;49.79;101061.94;5085495;28;20044;-67
2020/12/17 04:58:45;;;;;;;5.82;3.10;;;;;;;10.75;49.82;101056.09;5089267;28;20162;-65
2020/12/17 05:01:33;;;;;;;5.30;3.28;;;;;;;10.71;50.09;101052.75;5093095;28;20131;-65
2020/12/17 05:04:21;;;;;;;4.38;2.78;;;;;;;10.74;50.03;101062.56;5075707;28;20063;-65
2020/12/17 05:07:10;;;;;;;5.22;2.63;;;;;;;10.75;49.95;101064.31;5088684;28;20055;-66
2020/12/17 05:09:59;;;;;;;5.10;2.92;;;;;;;10.75;49.92;101067.91;5101709;28;20442;-66
2020/12/17 05:12:46;;;;;;;5.22;3.10;;;;;;;10.74;49.93;101060.72;5089078;28;20040;-66
2020/12/17 05:15:33;;;;;;;5.22;3.05;;;;;;;10.76;49.79;101071.53;5091524;28;20193;-67
2020/12/17 05:18:21;;;;;;;5.15;2.80;;;;;;;10.77;49.86;101067.81;5091953;28;20094;-67
2020/12/17 05:21:09;;;;;;;5.60;2.95;;;;;;;10.76;49.93;101077.00;5088415;28;20109;-66
2020/12/17 05:23:56;;;;;;;5.10;3.15;;;;;;;10.76;49.94;101072.41;5071052;28;20052;-67
2020/12/17 05:26:36;;;;;;;4.28;2.50;;;;;;;10.78;49.90;101081.31;5074422;28;20040;-67
2020/12/17 05:29:06;;;;;;;5.13;3.08;;;;;;;10.78;49.81;101085.97;5091597;28;20043;-66
2020/12/17 05:31:47;;;;;;;5.03;2.70;;;;;;;10.79;49.84;101090.41;5074929;28;20036;-67
2020/12/17 05:34:35;;;;;;;4.32;2.88;;;;;;;10.79;50.01;101098.63;5079429;28;20063;-66
2020/12/17 05:37:22;;;;;;;4.40;2.85;;;;;;;10.78;49.74;101096.91;5090322;28;20100;-67
2020/12/17 05:40:15;;;;;;;4.90;3.20;;;;;;;10.76;49.94;101104.38;5082090;28;20256;-67
2020/12/17 05:42:52;;;;;;;4.60;2.95;;;;;;;10.80;49.63;101108.56;5092313;28;20048;-66
2020/12/17 05:45:39;;;;;;;4.13;2.85;;;;;;;10.79;49.52;101110.44;5089827;28;20328;-66
2020/12/17 05:48:22;;;;;;;5.32;3.28;;;;;;;10.80;49.80;101119.50;5071842;28;20043;-66
2020/12/17 05:51:19;;;;;;;4.63;2.80;;;;;;;10.81;49.49;101116.66;5097788;27;20048;-67
2020/12/17 05:54:09;;;;;;;5.18;2.75;;;;;;;10.78;49.77;101116.91;5091288;28;20573;-67
2020/12/17 05:56:42;;;;;;;5.50;3.38;;;;;;;10.78;50.06;101119.63;5049043;28;20080;-68
2020/12/17 05:59:23;;;;;;;5.05;2.75;;;;;;;10.81;50.06;101121.25;5071547;28;20044;-66
2020/12/17 06:01:57;;;;;;;5.22;3.03;;;;;;;10.80;49.75;101119.50;5102087;27;20407;-66
2020/12/17 06:04:26;;;;;;;4.35;2.70;;;;;;;10.80;49.85;101120.38;5067157;28;20040;-67
2020/12/17 06:07:15;;;;;;;4.13;2.90;;;;;;;10.82;49.83;101117.53;5086405;28;20051;-67
2020/12/17 06:09:51;;;;;;;5.53;3.30;;;;;;;10.84;49.76;101124.66;5095585;28;20040;-67
2020/12/17 06:12:39;;;;;;;4.25;2.80;;;;;;;10.81;49.88;101124.88;5086909;28;20066;-67
2020/12/17 06:15:28;;;;;;;4.35;2.78;;;;;;;10.84;50.25;101129.25;5086474;28;20506;-66
2020/12/17 06:18:17;;;;;;;5.72;3.28;;;;;;;10.84;49.95;101135.59;5076226;28;20052;-67
2020/12/17 06:21:12;;;;;;;4.88;3.05;;;;;;;10.87;49.93;101150.88;5066529;28;20052;-68
2020/12/17 06:24:00;;;;;;;4.95;2.70;;;;;;;10.84;50.23;101153.88;5089751;28;20051;-67
2020/12/17 06:26:54;;;;;;;4.82;3.13;;;;;;;10.86;49.91;101154.63;5088841;28;20060;-67
2020/12/17 06:29:49;;;;;;;5.30;3.05;;;;;;;10.87;50.08;101164.56;5069327;28;20445;-68
2020/12/17 06:32:37;;;;;;;4.57;3.00;;;;;;;10.86;50.42;101169.19;5086563;28;20036;-68
2020/12/17 06:35:42;;;;;;;4.30;2.63;;;;;;;10.88;50.18;101175.38;5089835;28;20591;-69
2020/12/17 06:38:30;;;;;;;6.20;3.30;;;;;;;10.86;50.30;101180.13;5092667;28;20047;-69
2020/12/17 06:41:20;;;;;;;5.28;3.15;;;;;;;10.87;50.01;101187.31;5092359;28;20048;-70
2020/12/17 06:44:26;;;;;;;4.65;3.13;;;;;;;10.87;50.24;101192.81;5092239;28;20059;-70
2020/12/17 06:47:13;;;;;;;4.30;2.92;;;;;;;10.84;50.28;101204.03;5065830;28;20056;-70
2020/12/17 06:50:21;;;;;;;4.97;3.25;;;;;;;10.84;50.30;101216.84;5076703;28;20410;-69
2020/12/17 06:53:06;;;;;;;5.38;3.00;;;;;;;10.82;50.31;101210.56;5092499;28;20035;-69
2020/12/17 06:55:45;;;;;;;4.70;2.65;;;;;;;10.80;50.46;101218.91;5068643;28;20043;-69
2020/12/17 06:58:18;;;;;;;5.10;3.20;;;;;;;10.82;50.19;101224.25;5096544;28;20036;-69
2020/12/17 07:00:55;;;;;;;5.93;2.90;;;;;;;10.78;50.34;101231.84;5040286;28;20060;-70
2020/12/17 07:03:43;;;;;;;6.60;3.17;;;;;;;10.80;50.51;101231.72;5065500;28;20109;-70
2020/12/17 07:06:31;;;;;;;4.10;2.90;;;;;;;10.76;50.81;101246.66;5091556;28;20403;-70
2020/12/17 07:09:30;;;;;;;4.60;3.20;;;;;;;10.77;50.86;101242.94;5077101;28;20495;-69
2020/12/17 07:12:09;;;;;;;4.90;2.95;;;;;;;10.73;50.51;101246.88;5073848;28;20044;-69
2020/12/17 07:14:59;;;;;;;5.40;2.65;;;;;;;10.72;50.63;101254.22;5076798;28;20055;-69
2020/12/17 07:17:46;;;;;;;4.18;2.40;;;;;;;10.71;50.81;101259.81;5090774;28;20088;-69
2020/12/17 07:20:33;;;;;;;5.50;2.83;;;;;;;10.69;51.00;101256.34;5088403;28;20044;-69
2020/12/17 07:23:22;;;;;;;4.13;2.72;;;;;;;10.70;50.78;101267.16;5076665;28;20117;-69
2020/12/17 07:26:09;;;;;;;3.70;2.70;;;;;;;10.68;51.02;101277.38;5105795;28;20534;-69
2020/12/17 07:28:56;;;;;;;5.10;3.00;;;;;;;10.67;50.82;101283.84;5064060;28;20048;-69
2020/12/17 07:31:43;;;;;;;5.30;2.90;;;;;;;10.67;50.80;101286.56;5091275;28;20074;-69
2020/12/17 07:34:30;;;;;;;5.60;2.80;;;;;;;10.67;51.23;101294.78;5088983;28;20052;-69
2020/12/17 07:37:40;;;;;;;5.50;2.85;;;;;;;10.64;51.24;101292.28;5088844;28;20442;-68
2020/12/17 07:40:31;;;;;;;5.30;2.55;;;;;;;10.65;51.44;101304.97;5090914;28;20052;-69
2020/12/17 07:43:20;;;;;;;4.13;2.17;;;;;;;10.63;51.25;101304.22;5076604;28;20044;-69
2020/12/17 07:46:08;;;;;;;4.47;2.20;;;;;;;10.63;51.07;101304.22;5092583;28;20066;-69
2020/12/17 07:48:57;;;;;;;3.40;2.00;;;;;;;10.61;51.22;101314.44;5095704;28;20056;-69
2020/12/17 07:51:36;;;;;;;3.58;1.98;;;;;;;10.62;51.19;101313.41;5095445;28;20464;-69
2020/12/17 07:54:23;;;;;;;3.50;1.67;;;;;;;10.61;51.54;101319.03;5093775;28;20048;-69
2020/12/17 07:57:11;;;;;;;3.50;1.90;;;;;;;10.61;51.05;101319.03;5107890;28;20060;-69
2020/12/17 07:59:58;;;;;;;3.50;2.00;;;;;;;10.59;51.15;101319.16;5106895;28;20075;-69
2020/12/17 08:02:45;;;;;;;3.63;1.88;;;;;;;10.59;51.31;101329.22;5094944;28;20056;-68
2020/12/17 08:05:33;;;;;;;2.70;1.70;;;;;;;10.59;51.30;101337.41;5080283;28;20052;-69
2020/12/17 08:08:00;;;;;;;5.00;1.77;;;;;;;10.58;51.38;101336.53;5093985;28;20465;-68
2020/12/17 08:10:48;;;;;;;3.85;2.00;;;;;;;10.58;51.53;101342.03;5091986;28;20422;-68
2020/12/17 08:13:29;;;;;;;4.15;1.80;;;;;;;10.58;51.34;101344.75;5060678;28;20042;-68
2020/12/17 08:16:16;;;;;;;3.55;1.83;;;;;;;10.56;51.17;101354.94;5091778;28;20173;-68
2020/12/17 08:19:04;;;;;;;3.00;1.70;;;;;;;10.57;51.15;101361.28;5093372;28;20056;-67
2020/12/17 08:21:51;;;;;;;3.45;1.75;;;;;;;10.56;51.43;101368.63;5092574;28;20434;-68
2020/12/17 08:24:38;;;;;;;3.42;1.70;;;;;;;10.56;51.22;101378.69;5093044;28;20051;-68
2020/12/17 08:27:26;;;;;;;4.00;1.85;;;;;;;10.54;51.36;101384.28;5111048;28;20056;-68
2020/12/17 08:30:14;;;;;;;3.88;1.67;;;;;;;10.54;51.31;101376.94;5079033;28;20098;-68
2020/12/17 08:33:02;;;;;;;2.72;1.50;;;;;;;10.54;51.31;101378.78;5095003;28;20153;-68
2020/12/17 08:35:49;;;;;;;3.40;1.67;;;;;;;10.53;51.11;101388.03;5079456;28;20044;-68
2020/12/17 08:38:37;;;;;;;3.72;1.73;;;;;;;10.53;51.17;101399.81;5074037;28;20059;-68
2020/12/17 08:41:30;;;;;;;4.07;1.60;;;;;;;10.53;51.25;101397.06;5076405;28;20044;-68
2020/12/17 08:44:22;;;;;;;3.33;1.67;;;;;;;10.54;51.39;101406.16;5095011;28;20117;-68
2020/12/17 08:47:14;;;;;;;2.80;1.65;;;;;;;10.56;50.95;101408.78;5094802;28;20126;-68
2020/12/17 08:50:04;;;;;;;2.95;1.50;;;;;;;10.53;51.17;101418.97;5111512;28;20044;-68
2020/12/17 08:52:51;;;;;;;3.38;1.60;;;;;;;10.52;51.13;101421.84;5102902;28;20451;-68
2020/12/17 08:55:38;;;;;;;3.00;1.50;;;;;;;10.53;51.09;101434.53;5094688;28;20058;-67
2020/12/17 08:58:25;;;;;;;3.58;1.45;;;;;;;10.53;51.13;101432.63;5078373;28;20132;-68
2020/12/17 09:01:17;;;;;;;2.92;1.50;;;;;;;10.56;50.98;101426.06;5102622;28;20052;-68
2020/12/17 09:04:08;;;;;;;3.20;1.58;;;;;;;10.56;51.18;101438.88;5087524;28;20138;-68
2020/12/17 09:06:56;;;;;;;3.42;1.65;;;;;;;10.54;50.93;101436.25;5079110;28;20384;-68
2020/12/17 09:09:44;;;;;;;2.80;1.50;;;;;;;10.53;51.32;101442.72;5093182;28;20059;-68
2020/12/17 09:12:32;;;;;;;3.15;1.58;;;;;;;10.53;51.02;101446.31;5091307;28;20051;-68
2020/12/17 09:15:05;;;;;;;2.83;1.63;;;;;;;10.58;51.07;101454.19;5056546;28;20043;-68
2020/12/17 09:17:43;;;;;;;2.40;1.40;;;;;;;10.53;51.31;101449.03;5074970;28;20045;-68
2020/12/17 09:20:16;;;;;;;2.42;1.73;;;;;;;10.59;51.37;101461.41;5072795;28;20055;-68
2020/12/17 09:23:07;;;;;;;;;;;;;;;10.29;51.86;101461.84;5074307;28;20057;-68
2020/12/17 09:25:54;;;;;;;2.25;1.33;;;;;;;10.50;51.18;101465.72;5066801;28;19968;-71
2020/12/17 09:28:32;;;;;;;1.75;1.20;;;;;;;10.54;51.15;101467.22;5055549;28;20511;-69
2020/12/17 09:31:22;;;;;;;1.95;1.17;;;;;;;10.56;51.13;101469.84;5068521;28;20140;-69
2020/12/17 09:34:13;;;;;;;2.92;1.23;;;;;;;10.57;50.77;101468.84;5058858;28;20563;-68
2020/12/17 09:37:02;;;;;;;1.45;1.02;;;;;;;10.57;51.02;101479.78;5092917;28;20463;-69
2020/12/17 09:39:30;;;;;;;1.85;1.15;;;;;;;10.57;50.84;101481.66;5073730;28;20044;-68
2020/12/17 09:42:18;;;;;;;1.38;0.93;;;;;;;10.54;51.20;101475.41;5073618;28;20487;-68
2020/12/17 09:45:17;;;;;;;2.28;1.00;;;;;;;10.60;50.94;101497.84;5073407;28;20487;-68
2020/12/17 09:48:00;;;;;;;3.13;1.13;;;;;;;10.57;51.36;101498.06;5077958;28;20058;-67
2020/12/17 09:50:32;;;;;;;2.13;1.20;;;;;;;10.58;50.88;101499.81;5083937;28;20400;-68
2020/12/17 09:53:21;;;;;;;1.85;1.00;;;;;;;10.59;51.09;101504.31;5084143;28;20479;-68
2020/12/17 09:56:10;;;;;;;1.95;0.90;;;;;;;10.60;50.94;101506.94;5055407;28;20045;-68
2020/12/17 09:58:57;;;;;;;2.40;1.10;;;;;;;10.59;50.97;101507.03;5069913;28;20102;-68
2020/12/17 10:01:45;;;;;;;2.03;1.20;;;;;;;10.59;51.17;101502.44;5070900;28;20063;-67
2020/12/17 10:04:26;;;;;;;2.10;1.10;;;;;;;10.62;50.82;101512.28;5073324;28;20450;-67
2020/12/17 10:07:14;;;;;;;2.33;1.00;;;;;;;10.61;50.57;101525.09;5073140;28;20060;-67
2020/12/17 10:10:04;;;;;;;2.53;1.02;;;;;;;10.62;50.63;101531.44;5072076;28;20456;-67
2020/12/17 10:13:00;;;;;;;2.15;0.90;;;;;;;10.60;50.80;101536.16;5072937;28;20048;-67
2020/12/17 10:15:48;;;;;;;1.55;1.00;;;;;;;10.60;50.32;101537.03;5073035;28;20422;-67
2020/12/17 10:18:36;;;;;;;2.65;1.35;;;;;;;10.61;50.42;101535.16;5071826;28;20048;-67
2020/12/17 10:21:24;;;;;;;1.60;0.90;;;;;;;10.61;50.20;101543.38;5072333;28;20066;-67
2020/12/17 10:24:11;;;;;;;2.08;1.00;;;;;;;10.60;50.15;101542.50;5072490;28;20466;-67
2020/12/17 10:27:02;;;;;;;1.52;0.80;;;;;;;10.61;50.17;101551.56;5072469;28;20060;-67
2020/12/17 10:29:49;;;;;;;2.92;0.95;;;;;;;10.60;50.33;101552.56;5071564;28;20044;-68
2020/12/17 10:32:38;;;;;;;1.88;0.80;;;;;;;10.60;49.99;101544.34;5072391;28;20048;-67
2020/12/17 10:35:06;;;;;;;2.08;0.98;;;;;;;10.61;50.11;101551.56;5068258;28;20073;-67
2020/12/17 10:37:34;;;;;;;2.22;1.08;;;;;;;10.60;50.16;101547.09;5092672;28;20372;-67
2020/12/17 10:40:04;;;;;;;1.60;0.90;;;;;;;10.60;49.98;101552.56;5058879;28;20053;-67
2020/12/17 10:42:32;;;;;;;2.42;0.93;;;;;;;10.62;49.87;101553.31;5072455;28;20049;-67
2020/12/17 10:45:00;;;;;;;1.38;0.82;;;;;;;10.60;50.09;101547.97;5072702;28;20047;-67
2020/12/17 10:47:27;;;;;;;1.10;0.90;;;;;;;10.62;50.16;101551.44;5072569;28;20044;-67
2020/12/17 10:49:55;;;;;;;2.88;1.00;;;;;;;10.63;49.81;101547.72;5073777;28;20040;-67
2020/12/17 10:52:23;;;;;;;2.20;1.00;;;;;;;10.64;50.12;101546.72;5073535;28;20044;-67
2020/12/17 10:54:55;;;;;;;1.63;1.17;;;;;;;10.63;50.10;101544.97;5073141;28;20691;-67
2020/12/17 10:57:24;;;;;;;2.95;1.20;;;;;;;10.65;50.02;101550.34;5072185;28;20055;-67
2020/12/17 10:59:53;;;;;;;2.15;1.05;;;;;;;10.69;50.17;101554.59;5071238;28;20488;-67
2020/12/17 11:02:26;;;;;;;2.05;0.90;;;;;;;10.68;50.05;101553.72;5071947;28;20037;-66
2020/12/17 11:04:54;;;;;;;2.30;1.00;;;;;;;10.70;50.02;101543.53;5062130;28;20056;-67
2020/12/17 11:07:23;;;;;;;1.90;1.00;;;;;;;10.71;50.19;101545.28;5092031;28;20124;-67
2020/12/17 11:09:52;;;;;;;3.65;1.40;;;;;;;10.73;49.99;101548.75;5063936;28;20032;-67
2020/12/17 11:12:19;;;;;;;2.78;1.10;;;;;;;10.75;49.68;101546.78;5072015;28;20047;-67
2020/12/17 11:14:47;;;;;;;2.15;1.00;;;;;;;10.79;49.99;101541.94;5053906;28;20059;-67
2020/12/17 11:17:16;;;;;;;2.67;1.25;;;;;;;10.84;50.01;101556.19;5054237;28;20036;-67
2020/12/17 11:19:43;;;;;;;3.00;1.35;;;;;;;10.84;50.04;101553.47;5053377;28;20047;-67
2020/12/17 11:22:11;;;;;;;2.97;1.10;;;;;;;10.89;49.75;101546.63;5071505;28;20136;-67
2020/12/17 11:24:38;;;;;;;2.28;1.02;;;;;;;10.92;49.87;101551.00;5070327;28;20051;-67
2020/12/17 11:27:05;;;;;;;3.05;1.20;;;;;;;10.97;49.95;101553.38;5072114;28;20075;-67
2020/12/17 11:29:33;;;;;;;2.38;1.17;;;;;;;10.99;50.12;101541.34;5071144;28;20420;-67
2020/12/17 11:32:00;;;;;;;2.63;1.35;;;;;;;11.02;49.51;101549.31;5071893;28;20048;-67
2020/12/17 11:34:35;;;;;;;2.22;1.23;;;;;;;11.07;49.54;101555.31;5079844;28;20028;-67
2020/12/17 11:37:03;;;;;;;4.45;1.15;;;;;;;11.10;49.28;101541.38;5091882;28;20196;-67
2020/12/17 11:39:30;;;;;;;2.65;1.10;;;;;;;11.13;49.28;101549.34;5088528;28;20048;-67
2020/12/17 11:42:02;;;;;;;5.23;1.23;;;;;;;11.15;49.35;101558.31;5072262;28;20040;-67
2020/12/17 11:44:29;;;;;;;2.67;1.40;;;;;;;11.17;48.59;101548.13;5071824;28;20037;-67
2020/12/17 11:46:56;;;;;;;2.58;1.27;;;;;;;11.21;48.39;101557.84;5071919;28;20044;-66
2020/12/17 11:49:24;;;;;;;1.83;0.93;;;;;;;11.24;48.59;101563.06;5071040;28;20048;-66
2020/12/17 11:51:52;;;;;;;2.33;1.13;;;;;;;11.27;48.33;101562.84;5071667;28;20555;-66
2020/12/17 11:54:20;;;;;;;2.60;1.13;;;;;;;11.25;48.18;101564.81;5071629;28;20110;-66
2020/12/17 11:56:49;;;;;;;2.40;1.00;;;;;;;11.26;48.46;101571.19;5053692;28;20143;-66
2020/12/17 11:59:17;;;;;;;3.10;1.30;;;;;;;11.24;47.97;101573.16;5069840;28;20561;-66
2020/12/17 12:01:46;;;;;;;2.88;1.13;;;;;;;11.25;48.10;101577.66;5069608;28;20055;-66
2020/12/17 12:04:14;;;;;;;2.00;1.10;;;;;;;11.21;47.76;101577.00;5082739;28;20120;-66
2020/12/17 12:06:41;;;;;;;3.22;1.25;;;;;;;11.22;47.31;101570.53;5086268;28;20510;-67
2020/12/17 12:09:18;;;;;;;2.53;1.20;;;;;;;11.23;47.34;101571.41;5091323;28;20443;-66
2020/12/17 12:11:45;;;;;;;;;;;;;;;10.95;47.55;101567.19;5074441;28;20041;-66
2020/12/17 12:14:13;;;;;;;2.83;1.27;;;;;;;11.16;48.11;101571.03;5071723;28;19978;-66
2020/12/17 12:16:40;;;;;;;2.63;1.10;;;;;;;11.19;47.69;101568.06;5070188;28;20044;-66
2020/12/17 12:19:08;;;;;;;4.13;1.45;;;;;;;11.24;47.59;101570.41;5070944;28;20048;-66
2020/12/17 12:21:36;;;;;;;2.50;1.10;;;;;;;11.27;47.71;101581.16;5070726;28;20037;-66